Fontana Observed Data For Previous 48 Hours

Caption
Day and Hour Reservoir Elevation (behind dam)* Tailwater Elevation (below dam)* Average Hourly Discharge*
9/16/2018 2 AM EDT 1,692.53 1,280.91 10,097
9/16/2018 3 AM EDT 1,692.46 1,280.94 10,083
9/16/2018 4 AM EDT 1,692.38 1,280.91 10,078
9/16/2018 5 AM EDT 1,692.32 1,280.98 10,063
9/16/2018 6 AM EDT 1,692.25 1,280.93 10,071
9/16/2018 7 AM EDT 1,692.18 1,280.88 10,059
9/16/2018 8 AM EDT 1,692.11 1,280.83 10,057
9/16/2018 9 AM EDT 1,692.05 1,280.91 10,045
9/16/2018 10 AM EDT 1,691.99 1,280.92 10,042
9/16/2018 11 AM EDT 1,691.92 1,280.90 10,040
9/16/2018 12 PM EDT 1,691.86 1,280.91 10,044
9/16/2018 1 PM EDT 1,691.80 1,280.88 10,012
9/16/2018 2 PM EDT 1,691.76 1,280.91 10,023
9/16/2018 3 PM EDT 1,691.70 1,280.90 10,014
9/16/2018 4 PM EDT 1,691.61 1,280.85 10,011
9/16/2018 5 PM EDT 1,691.56 1,280.89 10,001
9/16/2018 6 PM EDT 1,691.51 1,280.81 9,996
9/16/2018 7 PM EDT 1,691.44 1,280.88 9,989
9/16/2018 8 PM EDT 1,691.37 1,280.91 9,985
9/16/2018 9 PM EDT 1,691.32 1,280.87 9,970
9/16/2018 10 PM EDT 1,691.26 1,280.89 9,979
9/16/2018 11 PM EDT 1,691.20 1,280.88 9,972
9/17/2018 12 AM EDT 1,691.14 1,280.93 9,960
9/17/2018 1 AM EDT 1,691.08 1,280.85 9,956
9/17/2018 2 AM EDT 1,691.03 1,280.91 9,955
9/17/2018 3 AM EDT 1,690.97 1,280.85 9,949
9/17/2018 4 AM EDT 1,690.91 1,280.93 9,947
9/17/2018 5 AM EDT 1,690.85 1,280.90 9,925
9/17/2018 6 AM EDT 1,690.80 1,280.89 9,921
9/17/2018 7 AM EDT 1,690.73 1,280.90 9,933
9/17/2018 8 AM EDT 1,690.68 1,280.89 9,919
9/17/2018 9 AM EDT 1,690.62 1,280.83 9,920
9/17/2018 10 AM EDT 1,690.57 1,280.84 9,908
9/17/2018 11 AM EDT 1,690.50 1,280.83 9,898
9/17/2018 12 PM EDT 1,690.44 1,280.84 9,902
9/17/2018 1 PM EDT 1,690.42 1,279.52 8,746
9/17/2018 2 PM EDT 1,690.39 1,279.57 6,494
9/17/2018 3 PM EDT 1,690.35 1,279.51 6,480
9/17/2018 4 PM EDT 1,690.32 1,279.53 6,480
9/17/2018 5 PM EDT 1,690.32 1,279.47 6,482
9/17/2018 6 PM EDT 1,690.29 1,279.50 6,485
9/17/2018 7 PM EDT 1,690.25 1,279.46 6,474
9/17/2018 8 PM EDT 1,690.23 1,279.47 6,489
9/17/2018 9 PM EDT 1,690.21 1,279.41 6,482
9/17/2018 10 PM EDT 1,690.17 1,279.47 6,483
9/17/2018 11 PM EDT 1,690.14 1,279.43 6,491
9/18/2018 12 AM EDT 1,690.10 1,279.50 6,491
9/18/2018 1 AM EDT 1,690.08 1,279.42 6,492
9/18/2018 2 AM EDT 1,690.06 1,277.03 2,919
9/18/2018 3 AM EDT 1,690.08 1,274.24 60
9/18/2018 4 AM EDT 1,690.12 1,273.80 0
9/18/2018 5 AM EDT 1,690.13 1,273.43 0
9/18/2018 6 AM EDT 1,690.14 1,275.28 158
9/18/2018 7 AM EDT 1,690.17 1,277.07 2,949
9/18/2018 8 AM EDT 1,690.16 1,277.20 3,009
9/18/2018 9 AM EDT 1,690.14 1,279.41 6,234

Elevations are in feet above sea level. Discharges are in cubic feet per second and are reported at the end of the hour.